sensor_id;sensor_type;location;lat;lon;timestamp;temperature;humidity
68719;DHT22;55696;52.138;5.444;2023-04-30T00:02:11;12.10;64.40
68719;DHT22;55696;52.138;5.444;2023-04-30T00:04:38;12.20;64.70
68719;DHT22;55696;52.138;5.444;2023-04-30T00:07:05;12.30;64.60
68719;DHT22;55696;52.138;5.444;2023-04-30T00:09:31;12.20;64.60
68719;DHT22;55696;52.138;5.444;2023-04-30T00:11:58;12.10;64.60
68719;DHT22;55696;52.138;5.444;2023-04-30T00:14:25;12.10;64.80
68719;DHT22;55696;52.138;5.444;2023-04-30T00:16:52;12.10;65.00
68719;DHT22;55696;52.138;5.444;2023-04-30T00:19:18;12.00;65.00
68719;DHT22;55696;52.138;5.444;2023-04-30T00:21:45;11.90;64.90
68719;DHT22;55696;52.138;5.444;2023-04-30T00:24:13;11.90;65.10
68719;DHT22;55696;52.138;5.444;2023-04-30T00:26:39;11.90;65.20
68719;DHT22;55696;52.138;5.444;2023-04-30T00:29:09;11.80;65.20
68719;DHT22;55696;52.138;5.444;2023-04-30T00:31:36;11.90;65.40
68719;DHT22;55696;52.138;5.444;2023-04-30T00:34:03;11.80;65.50
68719;DHT22;55696;52.138;5.444;2023-04-30T00:36:30;11.80;65.40
68719;DHT22;55696;52.138;5.444;2023-04-30T00:38:57;11.80;65.50
68719;DHT22;55696;52.138;5.444;2023-04-30T00:41:24;11.80;65.50
68719;DHT22;55696;52.138;5.444;2023-04-30T00:43:51;11.70;66.40
68719;DHT22;55696;52.138;5.444;2023-04-30T00:46:18;11.90;65.90
68719;DHT22;55696;52.138;5.444;2023-04-30T00:48:45;11.60;65.90
68719;DHT22;55696;52.138;5.444;2023-04-30T00:51:12;11.60;65.90
68719;DHT22;55696;52.138;5.444;2023-04-30T00:53:39;11.50;66.40
68719;DHT22;55696;52.138;5.444;2023-04-30T00:56:08;11.50;66.20
68719;DHT22;55696;52.138;5.444;2023-04-30T00:58:35;11.50;67.20
68719;DHT22;55696;52.138;5.444;2023-04-30T01:01:03;11.50;66.60
68719;DHT22;55696;52.138;5.444;2023-04-30T01:03:30;11.50;66.40
68719;DHT22;55696;52.138;5.444;2023-04-30T01:05:56;11.30;66.30
68719;DHT22;55696;52.138;5.444;2023-04-30T01:08:24;11.30;66.30
68719;DHT22;55696;52.138;5.444;2023-04-30T01:14:01;11.30;68.10
68719;DHT22;55696;52.138;5.444;2023-04-30T01:16:34;11.40;68.20
68719;DHT22;55696;52.138;5.444;2023-04-30T01:19:49;11.30;68.20
68719;DHT22;55696;52.138;5.444;2023-04-30T01:21:58;11.30;68.10
68719;DHT22;55696;52.138;5.444;2023-04-30T01:30:50;11.10;69.10
68719;DHT22;55696;52.138;5.444;2023-04-30T01:33:18;11.00;67.00
68719;DHT22;55696;52.138;5.444;2023-04-30T01:39:14;11.10;69.10
68719;DHT22;55696;52.138;5.444;2023-04-30T01:41:53;11.00;69.20
68719;DHT22;55696;52.138;5.444;2023-04-30T01:50:01;11.00;69.70
68719;DHT22;55696;52.138;5.444;2023-04-30T01:52:58;10.90;69.20
68719;DHT22;55696;52.138;5.444;2023-04-30T01:55:49;10.80;69.80
68719;DHT22;55696;52.138;5.444;2023-04-30T01:58:18;10.80;70.10
68719;DHT22;55696;52.138;5.444;2023-04-30T02:00:45;10.80;68.60
68719;DHT22;55696;52.138;5.444;2023-04-30T02:03:12;10.90;67.70
68719;DHT22;55696;52.138;5.444;2023-04-30T02:05:39;11.90;68.10
68719;DHT22;55696;52.138;5.444;2023-04-30T02:08:06;10.90;67.50
68719;DHT22;55696;52.138;5.444;2023-04-30T02:10:33;11.00;67.60
68719;DHT22;55696;52.138;5.444;2023-04-30T02:13:01;11.00;67.50
68719;DHT22;55696;52.138;5.444;2023-04-30T02:15:28;11.00;67.50
68719;DHT22;55696;52.138;5.444;2023-04-30T02:17:54;11.00;67.40
68719;DHT22;55696;52.138;5.444;2023-04-30T02:20:21;11.00;67.40
68719;DHT22;55696;52.138;5.444;2023-04-30T02:22:49;11.00;67.60
68719;DHT22;55696;52.138;5.444;2023-04-30T02:25:17;10.90;67.70
68719;DHT22;55696;52.138;5.444;2023-04-30T02:27:43;10.90;67.70
68719;DHT22;55696;52.138;5.444;2023-04-30T02:30:10;10.90;67.70
68719;DHT22;55696;52.138;5.444;2023-04-30T02:32:38;10.90;67.80
68719;DHT22;55696;52.138;5.444;2023-04-30T02:35:05;10.80;67.80
68719;DHT22;55696;52.138;5.444;2023-04-30T02:37:32;10.90;68.20
68719;DHT22;55696;52.138;5.444;2023-04-30T02:39:59;10.70;67.70
68719;DHT22;55696;52.138;5.444;2023-04-30T02:42:26;10.70;67.80
68719;DHT22;55696;52.138;5.444;2023-04-30T02:44:52;10.60;68.10
68719;DHT22;55696;52.138;5.444;2023-04-30T02:47:19;10.60;68.10
68719;DHT22;55696;52.138;5.444;2023-04-30T02:49:46;10.70;68.40
68719;DHT22;55696;52.138;5.444;2023-04-30T02:52:13;10.60;68.20
68719;DHT22;55696;52.138;5.444;2023-04-30T02:54:39;10.50;68.30
68719;DHT22;55696;52.138;5.444;2023-04-30T02:57:06;10.50;68.30
68719;DHT22;55696;52.138;5.444;2023-04-30T02:59:33;10.50;68.40
68719;DHT22;55696;52.138;5.444;2023-04-30T03:02:00;10.40;68.60
68719;DHT22;55696;52.138;5.444;2023-04-30T03:04:27;10.50;68.70
68719;DHT22;55696;52.138;5.444;2023-04-30T03:06:53;10.40;68.60
68719;DHT22;55696;52.138;5.444;2023-04-30T03:09:20;10.40;68.60
68719;DHT22;55696;52.138;5.444;2023-04-30T03:11:47;10.30;68.50
68719;DHT22;55696;52.138;5.444;2023-04-30T03:14:14;10.30;68.80
68719;DHT22;55696;52.138;5.444;2023-04-30T03:16:41;10.30;68.80
68719;DHT22;55696;52.138;5.444;2023-04-30T03:19:08;10.30;68.80
68719;DHT22;55696;52.138;5.444;2023-04-30T03:21:34;10.40;68.80
68719;DHT22;55696;52.138;5.444;2023-04-30T03:24:01;10.30;68.70
68719;DHT22;55696;52.138;5.444;2023-04-30T03:26:28;10.30;68.80
68719;DHT22;55696;52.138;5.444;2023-04-30T03:28:55;10.90;69.20
68719;DHT22;55696;52.138;5.444;2023-04-30T03:31:22;10.30;68.70
68719;DHT22;55696;52.138;5.444;2023-04-30T03:33:49;10.30;68.90
68719;DHT22;55696;52.138;5.444;2023-04-30T03:36:16;10.30;68.80
68719;DHT22;55696;52.138;5.444;2023-04-30T03:38:43;10.30;68.70
68719;DHT22;55696;52.138;5.444;2023-04-30T03:41:10;10.30;69.30
68719;DHT22;55696;52.138;5.444;2023-04-30T03:43:37;10.30;68.80
68719;DHT22;55696;52.138;5.444;2023-04-30T03:46:04;10.30;68.90
68719;DHT22;55696;52.138;5.444;2023-04-30T03:48:31;10.30;68.70
68719;DHT22;55696;52.138;5.444;2023-04-30T03:50:57;10.20;68.80
68719;DHT22;55696;52.138;5.444;2023-04-30T03:53:24;10.20;68.80
68719;DHT22;55696;52.138;5.444;2023-04-30T03:55:53;10.20;68.70
68719;DHT22;55696;52.138;5.444;2023-04-30T03:58:21;10.10;69.50
68719;DHT22;55696;52.138;5.444;2023-04-30T04:00:47;10.10;69.60
68719;DHT22;55696;52.138;5.444;2023-04-30T04:03:15;10.10;69.30
68719;DHT22;55696;52.138;5.444;2023-04-30T04:05:42;10.00;69.70
68719;DHT22;55696;52.138;5.444;2023-04-30T04:08:09;10.00;69.30
68719;DHT22;55696;52.138;5.444;2023-04-30T04:10:37;10.00;69.50
68719;DHT22;55696;52.138;5.444;2023-04-30T04:13:05;10.00;70.50
68719;DHT22;55696;52.138;5.444;2023-04-30T04:15:33;9.90;69.70
68719;DHT22;55696;52.138;5.444;2023-04-30T04:18:00;10.00;69.70
68719;DHT22;55696;52.138;5.444;2023-04-30T04:20:27;10.00;69.60
68719;DHT22;55696;52.138;5.444;2023-04-30T04:22:55;10.00;69.40
68719;DHT22;55696;52.138;5.444;2023-04-30T04:25:22;10.00;69.40
68719;DHT22;55696;52.138;5.444;2023-04-30T04:27:51;10.10;69.10
68719;DHT22;55696;52.138;5.444;2023-04-30T04:30:18;10.10;69.50
68719;DHT22;55696;52.138;5.444;2023-04-30T04:32:46;10.20;69.30
68719;DHT22;55696;52.138;5.444;2023-04-30T04:35:16;10.20;69.20
68719;DHT22;55696;52.138;5.444;2023-04-30T04:37:44;10.10;69.80
68719;DHT22;55696;52.138;5.444;2023-04-30T04:40:11;10.20;69.20
68719;DHT22;55696;52.138;5.444;2023-04-30T04:42:39;10.80;69.60
68719;DHT22;55696;52.138;5.444;2023-04-30T04:45:07;10.20;69.30
68719;DHT22;55696;52.138;5.444;2023-04-30T04:47:34;10.20;69.70
68719;DHT22;55696;52.138;5.444;2023-04-30T04:50:01;10.20;69.20
68719;DHT22;55696;52.138;5.444;2023-04-30T04:52:28;10.30;69.20
68719;DHT22;55696;52.138;5.444;2023-04-30T04:54:55;10.30;69.00
68719;DHT22;55696;52.138;5.444;2023-04-30T04:57:21;10.40;69.00
68719;DHT22;55696;52.138;5.444;2023-04-30T04:59:48;10.40;68.90
68719;DHT22;55696;52.138;5.444;2023-04-30T05:02:15;10.50;68.90
68719;DHT22;55696;52.138;5.444;2023-04-30T05:04:42;10.50;68.70
68719;DHT22;55696;52.138;5.444;2023-04-30T05:07:09;10.60;68.60
68719;DHT22;55696;52.138;5.444;2023-04-30T05:09:35;10.70;68.60
68719;DHT22;55696;52.138;5.444;2023-04-30T05:12:03;10.70;68.50
68719;DHT22;55696;52.138;5.444;2023-04-30T05:14:29;10.80;68.70
68719;DHT22;55696;52.138;5.444;2023-04-30T05:16:56;10.80;68.30
68719;DHT22;55696;52.138;5.444;2023-04-30T05:19:23;10.90;68.40
68719;DHT22;55696;52.138;5.444;2023-04-30T05:21:49;11.00;68.30
68719;DHT22;55696;52.138;5.444;2023-04-30T05:24:16;11.00;68.40
68719;DHT22;55696;52.138;5.444;2023-04-30T05:26:43;11.00;68.40
68719;DHT22;55696;52.138;5.444;2023-04-30T05:29:10;11.10;68.50
68719;DHT22;55696;52.138;5.444;2023-04-30T05:31:37;11.30;68.50
68719;DHT22;55696;52.138;5.444;2023-04-30T05:34:04;11.20;68.30
68719;DHT22;55696;52.138;5.444;2023-04-30T05:36:31;11.30;68.80
68719;DHT22;55696;52.138;5.444;2023-04-30T05:38:58;11.50;68.10
68719;DHT22;55696;52.138;5.444;2023-04-30T05:41:25;12.30;68.40
68719;DHT22;55696;52.138;5.444;2023-04-30T05:43:52;11.60;67.80
68719;DHT22;55696;52.138;5.444;2023-04-30T05:46:18;11.60;67.50
68719;DHT22;55696;52.138;5.444;2023-04-30T05:48:46;11.50;67.60
68719;DHT22;55696;52.138;5.444;2023-04-30T05:51:13;11.60;67.70
68719;DHT22;55696;52.138;5.444;2023-04-30T05:53:40;11.80;67.60
68719;DHT22;55696;52.138;5.444;2023-04-30T05:56:07;11.70;67.50
68719;DHT22;55696;52.138;5.444;2023-04-30T05:58:34;12.70;68.10
68719;DHT22;55696;52.138;5.444;2023-04-30T06:01:01;11.90;67.20
68719;DHT22;55696;52.138;5.444;2023-04-30T06:03:28;12.00;67.30
68719;DHT22;55696;52.138;5.444;2023-04-30T06:05:54;11.90;67.20
68719;DHT22;55696;52.138;5.444;2023-04-30T06:08:21;12.00;67.10
68719;DHT22;55696;52.138;5.444;2023-04-30T06:10:49;12.20;67.20
68719;DHT22;55696;52.138;5.444;2023-04-30T06:13:16;12.20;67.80
68719;DHT22;55696;52.138;5.444;2023-04-30T06:15:43;12.40;66.40
68719;DHT22;55696;52.138;5.444;2023-04-30T06:18:11;12.40;66.70
68719;DHT22;55696;52.138;5.444;2023-04-30T06:20:39;12.50;66.80
68719;DHT22;55696;52.138;5.444;2023-04-30T06:23:08;12.50;66.60
68719;DHT22;55696;52.138;5.444;2023-04-30T06:25:34;12.60;66.30
68719;DHT22;55696;52.138;5.444;2023-04-30T06:28:01;12.70;65.60
68719;DHT22;55696;52.138;5.444;2023-04-30T06:30:28;12.70;65.70
68719;DHT22;55696;52.138;5.444;2023-04-30T06:32:57;12.70;65.80
68719;DHT22;55696;52.138;5.444;2023-04-30T06:35:23;12.70;65.80
68719;DHT22;55696;52.138;5.444;2023-04-30T06:37:50;12.70;65.80
68719;DHT22;55696;52.138;5.444;2023-04-30T06:40:17;12.90;65.70
68719;DHT22;55696;52.138;5.444;2023-04-30T06:42:44;12.90;65.60
68719;DHT22;55696;52.138;5.444;2023-04-30T06:45:13;12.90;65.70
68719;DHT22;55696;52.138;5.444;2023-04-30T06:47:40;13.00;65.80
68719;DHT22;55696;52.138;5.444;2023-04-30T06:50:08;13.40;65.60
68719;DHT22;55696;52.138;5.444;2023-04-30T06:52:35;13.40;65.30
68719;DHT22;55696;52.138;5.444;2023-04-30T06:55:02;13.50;64.70
68719;DHT22;55696;52.138;5.444;2023-04-30T06:57:29;13.60;64.30
68719;DHT22;55696;52.138;5.444;2023-04-30T06:59:56;13.70;64.00
68719;DHT22;55696;52.138;5.444;2023-04-30T07:02:23;13.80;63.50
68719;DHT22;55696;52.138;5.444;2023-04-30T07:04:50;13.90;63.10
68719;DHT22;55696;52.138;5.444;2023-04-30T07:07:18;14.00;63.00
68719;DHT22;55696;52.138;5.444;2023-04-30T07:09:44;14.10;62.90
68719;DHT22;55696;52.138;5.444;2023-04-30T07:12:11;14.10;62.80
68719;DHT22;55696;52.138;5.444;2023-04-30T07:14:39;14.70;62.80
68719;DHT22;55696;52.138;5.444;2023-04-30T07:17:06;14.40;62.60
68719;DHT22;55696;52.138;5.444;2023-04-30T07:19:32;14.30;62.50
68719;DHT22;55696;52.138;5.444;2023-04-30T07:21:59;14.20;62.00
68719;DHT22;55696;52.138;5.444;2023-04-30T07:24:26;14.40;62.00
68719;DHT22;55696;52.138;5.444;2023-04-30T07:26:53;14.40;61.80
68719;DHT22;55696;52.138;5.444;2023-04-30T07:29:20;14.40;61.50
68719;DHT22;55696;52.138;5.444;2023-04-30T07:31:47;14.40;61.70
68719;DHT22;55696;52.138;5.444;2023-04-30T07:34:14;14.60;61.20
68719;DHT22;55696;52.138;5.444;2023-04-30T07:36:41;14.60;61.00
68719;DHT22;55696;52.138;5.444;2023-04-30T07:39:07;14.70;60.70
68719;DHT22;55696;52.138;5.444;2023-04-30T07:41:37;14.60;60.50
68719;DHT22;55696;52.138;5.444;2023-04-30T07:44:04;14.80;60.40
68719;DHT22;55696;52.138;5.444;2023-04-30T07:46:31;14.80;60.60
68719;DHT22;55696;52.138;5.444;2023-04-30T07:48:58;14.70;60.50
68719;DHT22;55696;52.138;5.444;2023-04-30T07:51:25;14.80;60.10
68719;DHT22;55696;52.138;5.444;2023-04-30T07:53:52;14.90;60.10
68719;DHT22;55696;52.138;5.444;2023-04-30T07:56:19;15.40;60.10
68719;DHT22;55696;52.138;5.444;2023-04-30T07:58:46;15.20;59.80
68719;DHT22;55696;52.138;5.444;2023-04-30T08:01:12;15.00;59.50
68719;DHT22;55696;52.138;5.444;2023-04-30T08:03:39;15.20;59.50
68719;DHT22;55696;52.138;5.444;2023-04-30T08:06:06;16.20;59.70
68719;DHT22;55696;52.138;5.444;2023-04-30T08:08:33;15.30;58.90
68719;DHT22;55696;52.138;5.444;2023-04-30T08:11:00;15.30;59.10
68719;DHT22;55696;52.138;5.444;2023-04-30T08:13:26;16.10;59.20
68719;DHT22;55696;52.138;5.444;2023-04-30T08:15:53;15.40;59.70
68719;DHT22;55696;52.138;5.444;2023-04-30T08:18:20;15.40;58.50
68719;DHT22;55696;52.138;5.444;2023-04-30T08:20:47;15.40;58.50
68719;DHT22;55696;52.138;5.444;2023-04-30T08:23:14;15.60;58.40
68719;DHT22;55696;52.138;5.444;2023-04-30T08:25:42;15.50;58.30
68719;DHT22;55696;52.138;5.444;2023-04-30T08:28:09;15.80;62.90
68719;DHT22;55696;52.138;5.444;2023-04-30T08:30:35;15.50;57.80
68719;DHT22;55696;52.138;5.444;2023-04-30T08:33:02;15.50;57.80
68719;DHT22;55696;52.138;5.444;2023-04-30T08:35:29;15.70;58.10
68719;DHT22;55696;52.138;5.444;2023-04-30T08:37:56;15.70;58.80
68719;DHT22;55696;52.138;5.444;2023-04-30T08:40:25;15.70;57.50
68719;DHT22;55696;52.138;5.444;2023-04-30T08:43:13;15.70;58.60
68719;DHT22;55696;52.138;5.444;2023-04-30T08:45:41;15.80;58.00
68719;DHT22;55696;52.138;5.444;2023-04-30T08:48:09;16.00;57.40
68719;DHT22;55696;52.138;5.444;2023-04-30T08:50:37;15.90;57.50
68719;DHT22;55696;52.138;5.444;2023-04-30T08:53:07;16.20;56.20
68719;DHT22;55696;52.138;5.444;2023-04-30T08:55:34;15.80;57.20
68719;DHT22;55696;52.138;5.444;2023-04-30T08:58:01;16.40;55.90
68719;DHT22;55696;52.138;5.444;2023-04-30T09:00:31;16.10;55.60
68719;DHT22;55696;52.138;5.444;2023-04-30T09:02:59;16.20;56.80
68719;DHT22;55696;52.138;5.444;2023-04-30T09:05:26;16.20;55.90
68719;DHT22;55696;52.138;5.444;2023-04-30T09:07:53;16.30;54.50
68719;DHT22;55696;52.138;5.444;2023-04-30T09:10:31;16.30;54.10
68719;DHT22;55696;52.138;5.444;2023-04-30T09:13:06;16.40;55.50
68719;DHT22;55696;52.138;5.444;2023-04-30T09:15:34;16.50;53.40
68719;DHT22;55696;52.138;5.444;2023-04-30T09:20:37;16.60;54.70
68719;DHT22;55696;52.138;5.444;2023-04-30T09:23:06;16.70;53.90
68719;DHT22;55696;52.138;5.444;2023-04-30T09:25:42;17.30;54.70
68719;DHT22;55696;52.138;5.444;2023-04-30T09:28:10;16.90;54.90
68719;DHT22;55696;52.138;5.444;2023-04-30T09:30:38;16.90;54.00
68719;DHT22;55696;52.138;5.444;2023-04-30T09:33:06;16.90;53.60
68719;DHT22;55696;52.138;5.444;2023-04-30T09:35:38;17.00;53.40
68719;DHT22;55696;52.138;5.444;2023-04-30T09:38:05;17.00;52.80
68719;DHT22;55696;52.138;5.444;2023-04-30T09:40:39;18.00;52.50
68719;DHT22;55696;52.138;5.444;2023-04-30T09:43:07;17.20;52.80
68719;DHT22;55696;52.138;5.444;2023-04-30T09:45:47;17.30;51.90
68719;DHT22;55696;52.138;5.444;2023-04-30T09:48:22;17.30;52.80
68719;DHT22;55696;52.138;5.444;2023-04-30T09:50:50;17.40;51.20
68719;DHT22;55696;52.138;5.444;2023-04-30T09:53:17;17.50;51.90
68719;DHT22;55696;52.138;5.444;2023-04-30T09:55:47;17.60;51.50
68719;DHT22;55696;52.138;5.444;2023-04-30T09:58:16;17.40;52.00
68719;DHT22;55696;52.138;5.444;2023-04-30T10:00:49;17.50;51.50
68719;DHT22;55696;52.138;5.444;2023-04-30T10:03:17;17.50;52.70
68719;DHT22;55696;52.138;5.444;2023-04-30T10:05:47;18.30;51.80
68719;DHT22;55696;52.138;5.444;2023-04-30T10:08:39;18.00;51.60
68719;DHT22;55696;52.138;5.444;2023-04-30T10:11:11;17.80;52.00
68719;DHT22;55696;52.138;5.444;2023-04-30T10:14:03;17.80;51.70
68719;DHT22;55696;52.138;5.444;2023-04-30T10:19:29;18.00;50.00
68719;DHT22;55696;52.138;5.444;2023-04-30T10:21:57;18.00;51.90
68719;DHT22;55696;52.138;5.444;2023-04-30T10:24:26;18.10;49.70
68719;DHT22;55696;52.138;5.444;2023-04-30T10:26:54;18.20;50.30
68719;DHT22;55696;52.138;5.444;2023-04-30T10:29:20;18.20;50.50
68719;DHT22;55696;52.138;5.444;2023-04-30T10:31:48;18.20;49.10
68719;DHT22;55696;52.138;5.444;2023-04-30T10:36:46;18.90;49.20
68719;DHT22;55696;52.138;5.444;2023-04-30T10:39:20;18.20;50.20
68719;DHT22;55696;52.138;5.444;2023-04-30T10:41:47;18.50;50.20
68719;DHT22;55696;52.138;5.444;2023-04-30T10:44:20;18.70;48.80
68719;DHT22;55696;52.138;5.444;2023-04-30T10:46:47;18.70;50.20
68719;DHT22;55696;52.138;5.444;2023-04-30T10:49:14;19.10;48.80
68719;DHT22;55696;52.138;5.444;2023-04-30T10:51:49;18.60;48.30
68719;DHT22;55696;52.138;5.444;2023-04-30T10:54:32;18.80;50.10
68719;DHT22;55696;52.138;5.444;2023-04-30T10:57:10;18.80;49.20
68719;DHT22;55696;52.138;5.444;2023-04-30T10:59:41;18.90;49.80
68719;DHT22;55696;52.138;5.444;2023-04-30T11:02:11;18.90;48.40
68719;DHT22;55696;52.138;5.444;2023-04-30T11:05:16;19.20;47.70
68719;DHT22;55696;52.138;5.444;2023-04-30T11:07:51;19.10;48.70
68719;DHT22;55696;52.138;5.444;2023-04-30T11:10:23;19.30;48.30
68719;DHT22;55696;52.138;5.444;2023-04-30T11:12:53;19.30;47.80
68719;DHT22;55696;52.138;5.444;2023-04-30T11:15:24;19.90;47.90
68719;DHT22;55696;52.138;5.444;2023-04-30T11:17:55;19.40;47.90
68719;DHT22;55696;52.138;5.444;2023-04-30T11:20:25;19.70;48.10
68719;DHT22;55696;52.138;5.444;2023-04-30T11:23:11;19.70;47.00
68719;DHT22;55696;52.138;5.444;2023-04-30T11:25:45;19.80;48.10
68719;DHT22;55696;52.138;5.444;2023-04-30T11:28:19;19.70;46.30
68719;DHT22;55696;52.138;5.444;2023-04-30T11:30:53;19.90;46.90
68719;DHT22;55696;52.138;5.444;2023-04-30T11:33:24;20.40;46.80
68719;DHT22;55696;52.138;5.444;2023-04-30T11:35:52;20.60;46.30
68719;DHT22;55696;52.138;5.444;2023-04-30T11:38:27;20.30;45.90
68719;DHT22;55696;52.138;5.444;2023-04-30T11:40:59;20.40;45.60
68719;DHT22;55696;52.138;5.444;2023-04-30T11:43:28;20.30;45.50
68719;DHT22;55696;52.138;5.444;2023-04-30T11:46:12;20.50;45.80
68719;DHT22;55696;52.138;5.444;2023-04-30T11:48:41;20.60;46.50
68719;DHT22;55696;52.138;5.444;2023-04-30T11:51:21;20.90;45.40
68719;DHT22;55696;52.138;5.444;2023-04-30T11:53:51;21.00;45.30
68719;DHT22;55696;52.138;5.444;2023-04-30T11:56:22;21.00;44.20
68719;DHT22;55696;52.138;5.444;2023-04-30T11:58:50;22.00;44.50
68719;DHT22;55696;52.138;5.444;2023-04-30T12:01:18;21.10;43.60
68719;DHT22;55696;52.138;5.444;2023-04-30T12:03:48;21.10;43.40
68719;DHT22;55696;52.138;5.444;2023-04-30T12:06:24;21.20;43.70
68719;DHT22;55696;52.138;5.444;2023-04-30T12:08:52;21.30;43.40
68719;DHT22;55696;52.138;5.444;2023-04-30T12:11:30;21.70;43.60
68719;DHT22;55696;52.138;5.444;2023-04-30T12:14:01;21.60;43.90
68719;DHT22;55696;52.138;5.444;2023-04-30T12:16:47;21.90;43.50
68719;DHT22;55696;52.138;5.444;2023-04-30T12:19:19;22.00;42.80
68719;DHT22;55696;52.138;5.444;2023-04-30T12:21:47;22.10;41.90
68719;DHT22;55696;52.138;5.444;2023-04-30T12:24:16;22.50;41.60
68719;DHT22;55696;52.138;5.444;2023-04-30T12:26:43;22.60;40.80
68719;DHT22;55696;52.138;5.444;2023-04-30T12:29:17;22.90;40.30
68719;DHT22;55696;52.138;5.444;2023-04-30T12:31:45;22.90;40.30
68719;DHT22;55696;52.138;5.444;2023-04-30T12:34:14;22.90;40.50
68719;DHT22;55696;52.138;5.444;2023-04-30T12:36:42;23.40;40.20
68719;DHT22;55696;52.138;5.444;2023-04-30T12:39:11;23.70;40.30
68719;DHT22;55696;52.138;5.444;2023-04-30T12:41:40;23.60;40.10
68719;DHT22;55696;52.138;5.444;2023-04-30T12:44:17;23.90;39.60
68719;DHT22;55696;52.138;5.444;2023-04-30T12:46:45;24.90;40.50
68719;DHT22;55696;52.138;5.444;2023-04-30T12:49:32;24.30;38.90
68719;DHT22;55696;52.138;5.444;2023-04-30T12:52:02;24.20;37.20
68719;DHT22;55696;52.138;5.444;2023-04-30T12:54:30;24.10;36.90
68719;DHT22;55696;52.138;5.444;2023-04-30T12:57:02;24.00;36.20
68719;DHT22;55696;52.138;5.444;2023-04-30T12:59:35;24.10;36.70
68719;DHT22;55696;52.138;5.444;2023-04-30T13:02:13;23.80;36.80
68719;DHT22;55696;52.138;5.444;2023-04-30T13:04:41;24.10;37.10
68719;DHT22;55696;52.138;5.444;2023-04-30T13:07:08;23.90;36.50
68719;DHT22;55696;52.138;5.444;2023-04-30T13:09:36;23.50;36.70
68719;DHT22;55696;52.138;5.444;2023-04-30T13:12:03;23.60;37.30
68719;DHT22;55696;52.138;5.444;2023-04-30T13:14:31;23.80;37.30
68719;DHT22;55696;52.138;5.444;2023-04-30T13:16:58;23.80;35.90
68719;DHT22;55696;52.138;5.444;2023-04-30T13:19:25;24.20;35.90
68719;DHT22;55696;52.138;5.444;2023-04-30T13:21:52;24.90;35.80
68719;DHT22;55696;52.138;5.444;2023-04-30T13:24:19;24.80;34.80
68719;DHT22;55696;52.138;5.444;2023-04-30T13:26:46;25.10;34.70
68719;DHT22;55696;52.138;5.444;2023-04-30T13:29:13;25.40;34.40
68719;DHT22;55696;52.138;5.444;2023-04-30T13:31:40;25.60;33.50
68719;DHT22;55696;52.138;5.444;2023-04-30T13:34:08;25.90;33.40
68719;DHT22;55696;52.138;5.444;2023-04-30T13:36:35;26.20;33.10
68719;DHT22;55696;52.138;5.444;2023-04-30T13:39:02;26.20;32.60
68719;DHT22;55696;52.138;5.444;2023-04-30T13:41:30;26.40;32.10
68719;DHT22;55696;52.138;5.444;2023-04-30T13:43:57;26.60;33.00
68719;DHT22;55696;52.138;5.444;2023-04-30T13:46:25;26.40;32.00
68719;DHT22;55696;52.138;5.444;2023-04-30T13:48:52;26.30;32.00
68719;DHT22;55696;52.138;5.444;2023-04-30T13:51:19;26.40;32.20
68719;DHT22;55696;52.138;5.444;2023-04-30T13:53:46;26.30;32.20
68719;DHT22;55696;52.138;5.444;2023-04-30T13:56:13;26.50;32.10
68719;DHT22;55696;52.138;5.444;2023-04-30T13:58:41;26.60;31.60
68719;DHT22;55696;52.138;5.444;2023-04-30T14:01:07;26.70;31.60
68719;DHT22;55696;52.138;5.444;2023-04-30T14:03:35;26.80;31.60
68719;DHT22;55696;52.138;5.444;2023-04-30T14:06:03;26.50;30.90
68719;DHT22;55696;52.138;5.444;2023-04-30T14:08:29;26.30;31.60
68719;DHT22;55696;52.138;5.444;2023-04-30T14:10:57;26.40;31.50
68719;DHT22;55696;52.138;5.444;2023-04-30T14:13:24;26.70;31.80
68719;DHT22;55696;52.138;5.444;2023-04-30T14:15:51;26.90;31.70
68719;DHT22;55696;52.138;5.444;2023-04-30T14:18:18;27.10;31.60
68719;DHT22;55696;52.138;5.444;2023-04-30T14:20:48;27.30;31.10
68719;DHT22;55696;52.138;5.444;2023-04-30T14:23:15;27.30;31.00
68719;DHT22;55696;52.138;5.444;2023-04-30T14:25:42;27.40;30.50
68719;DHT22;55696;52.138;5.444;2023-04-30T14:28:08;27.30;30.40
68719;DHT22;55696;52.138;5.444;2023-04-30T14:30:35;27.50;30.50
68719;DHT22;55696;52.138;5.444;2023-04-30T14:33:02;27.70;30.30
68719;DHT22;55696;52.138;5.444;2023-04-30T14:35:29;27.90;29.80
68719;DHT22;55696;52.138;5.444;2023-04-30T14:37:55;27.90;29.80
68719;DHT22;55696;52.138;5.444;2023-04-30T14:40:22;27.80;29.80
68719;DHT22;55696;52.138;5.444;2023-04-30T14:42:49;27.70;29.90
68719;DHT22;55696;52.138;5.444;2023-04-30T14:45:16;27.70;30.00
68719;DHT22;55696;52.138;5.444;2023-04-30T14:47:43;26.70;30.00
68719;DHT22;55696;52.138;5.444;2023-04-30T14:50:09;26.40;30.60
68719;DHT22;55696;52.138;5.444;2023-04-30T14:52:38;25.90;31.50
68719;DHT22;55696;52.138;5.444;2023-04-30T14:55:05;26.00;32.00
68719;DHT22;55696;52.138;5.444;2023-04-30T14:57:32;25.60;31.80
68719;DHT22;55696;52.138;5.444;2023-04-30T14:59:59;25.20;32.30
68719;DHT22;55696;52.138;5.444;2023-04-30T15:02:27;25.00;32.30
68719;DHT22;55696;52.138;5.444;2023-04-30T15:04:54;24.60;32.50
68719;DHT22;55696;52.138;5.444;2023-04-30T15:07:20;24.40;33.10
68719;DHT22;55696;52.138;5.444;2023-04-30T15:09:47;24.20;33.80
68719;DHT22;55696;52.138;5.444;2023-04-30T15:12:14;24.10;34.10
68719;DHT22;55696;52.138;5.444;2023-04-30T15:14:41;23.70;34.10
68719;DHT22;55696;52.138;5.444;2023-04-30T15:17:08;23.70;34.70
68719;DHT22;55696;52.138;5.444;2023-04-30T15:19:36;23.40;35.00
68719;DHT22;55696;52.138;5.444;2023-04-30T15:22:05;23.40;35.30
68719;DHT22;55696;52.138;5.444;2023-04-30T15:24:31;23.20;35.60
68719;DHT22;55696;52.138;5.444;2023-04-30T15:26:58;23.30;35.90
68719;DHT22;55696;52.138;5.444;2023-04-30T15:29:25;23.80;36.10
68719;DHT22;55696;52.138;5.444;2023-04-30T15:31:52;24.50;34.70
68719;DHT22;55696;52.138;5.444;2023-04-30T15:34:20;25.20;34.10
68719;DHT22;55696;52.138;5.444;2023-04-30T15:36:48;23.80;31.90
68719;DHT22;55696;52.138;5.444;2023-04-30T15:39:15;26.30;32.60
68719;DHT22;55696;52.138;5.444;2023-04-30T15:41:42;26.70;32.30
68719;DHT22;55696;52.138;5.444;2023-04-30T15:44:10;26.90;31.40
68719;DHT22;55696;52.138;5.444;2023-04-30T15:46:36;26.80;31.30
68719;DHT22;55696;52.138;5.444;2023-04-30T15:49:03;26.40;31.50
68719;DHT22;55696;52.138;5.444;2023-04-30T15:51:30;25.80;31.90
68719;DHT22;55696;52.138;5.444;2023-04-30T15:53:57;25.70;33.00
68719;DHT22;55696;52.138;5.444;2023-04-30T15:56:24;25.10;33.30
68719;DHT22;55696;52.138;5.444;2023-04-30T15:58:52;25.10;33.90
68719;DHT22;55696;52.138;5.444;2023-04-30T16:01:19;25.40;33.90
68719;DHT22;55696;52.138;5.444;2023-04-30T16:03:46;25.60;32.80
68719;DHT22;55696;52.138;5.444;2023-04-30T16:06:14;25.70;33.20